Tudela, Spain
Current Conditions -  °F | °C
As of 11:00 AM on Friday 31 Oct 2014 (Local Time) from LEZG Reporting Station
Haze Haze  
Wind Chill: 57°   Ceiling: 2000
Heat Index: 57°   Visibility: 1.7mi
Dew Point: 54°   Wind: 0mph
Humidity: 88%   Direction: NA
Pressure: 30.3"   Gusts: NA
Location:  42.06°N, 1.61°W
Report Text: LEZG 311000Z 00000KT 2800 BR BKN020 14/12 Q1026
Loading
Personal Weather Stations






























Interactive Weather Map
Tropical Storm Tracking
New forecast layout! Learn more

10-Day Weather Forecast

Advertisements
Track Severe Weather on mobile